createdAt,value
2023-02-26T00:00:21.363Z,101419.25
2023-02-26T00:01:25.770Z,101304.00
2023-02-26T00:02:27.721Z,101397.53
2023-02-26T00:03:29.741Z,101371.06
2023-02-26T00:04:31.605Z,101391.81
2023-02-26T00:05:33.479Z,101419.84
2023-02-26T00:06:38.340Z,101421.66
2023-02-26T00:07:40.511Z,101396.28
2023-02-26T00:08:42.531Z,101356.38
2023-02-26T00:09:44.315Z,101336.72
2023-02-26T00:10:46.391Z,101390.59
2023-02-26T00:11:48.979Z,101361.09
2023-02-26T00:12:51.165Z,101395.06
2023-02-26T00:13:53.605Z,101344.72
2023-02-26T00:14:56.102Z,101348.59
2023-02-26T00:16:01.170Z,101383.41
2023-02-26T00:17:29.258Z,101425.75
2023-02-26T00:18:31.456Z,101393.59
2023-02-26T00:19:34.274Z,101380.84
2023-02-26T00:20:37.164Z,101379.16
2023-02-26T00:21:39.748Z,101396.03
2023-02-26T00:22:41.891Z,101397.97
2023-02-26T00:23:44.105Z,101391.41
2023-02-26T00:24:45.982Z,101391.41
2023-02-26T00:25:47.960Z,101398.44
2023-02-26T00:26:50.144Z,101278.25
2023-02-26T00:27:52.593Z,101317.13
2023-02-26T00:28:55.578Z,101421.22
2023-02-26T00:29:57.790Z,101407.41
2023-02-26T00:30:59.949Z,101437.72
2023-02-26T00:32:02.371Z,101456.66
2023-02-26T00:33:05.609Z,101394.00
2023-02-26T00:34:12.441Z,101434.81
2023-02-26T00:35:16.457Z,101447.66
2023-02-26T00:36:30.300Z,101460.06
2023-02-26T00:37:37.675Z,101459.09
2023-02-26T00:38:46.403Z,101294.44
2023-02-26T00:40:17.572Z,101457.78
2023-02-26T00:41:19.731Z,101412.59
2023-02-26T00:42:21.860Z,101428.75
2023-02-26T00:43:26.723Z,101459.44
2023-02-26T00:44:29.386Z,101427.50
2023-02-26T00:45:32.130Z,101437.56
2023-02-26T00:46:37.209Z,101412.31
2023-02-26T00:48:12.691Z,101391.06
2023-02-26T00:49:45.502Z,101463.81
2023-02-26T00:51:02.690Z,101447.16
2023-02-26T00:52:10.711Z,101415.22
2023-02-26T00:53:15.300Z,101475.56
2023-02-26T00:54:21.530Z,101473.25
2023-02-26T00:55:27.301Z,101426.72
2023-02-26T00:56:31.859Z,101477.09
2023-02-26T00:57:33.702Z,101403.41
2023-02-26T00:58:35.527Z,101451.44
2023-02-26T00:59:37.379Z,101465.81
2023-02-26T01:00:39.196Z,101294.09
2023-02-26T01:01:41.143Z,101305.25
2023-02-26T01:02:43.574Z,101445.38
2023-02-26T01:03:45.894Z,101455.31
2023-02-26T01:04:48.551Z,101413.56
2023-02-26T01:05:50.928Z,101353.28
2023-02-26T01:06:57.177Z,101489.44
2023-02-26T01:08:05.637Z,101501.69
2023-02-26T01:09:22.112Z,101457.97
2023-02-26T01:10:24.468Z,101395.16
2023-02-26T01:11:26.598Z,101369.72
2023-02-26T01:12:28.715Z,101451.88
2023-02-26T01:13:30.988Z,101478.84
2023-02-26T01:14:33.721Z,101494.03
2023-02-26T01:15:35.937Z,101469.34
2023-02-26T01:17:02.660Z,101499.13
2023-02-26T01:18:26.273Z,101429.31
2023-02-26T01:19:38.102Z,101480.16
2023-02-26T01:20:48.406Z,101435.59
2023-02-26T01:22:00.413Z,101360.69
2023-02-26T01:23:06.957Z,101519.63
2023-02-26T01:24:14.685Z,101480.84
2023-02-26T01:25:30.915Z,101527.88
2023-02-26T01:26:33.038Z,101394.72
2023-02-26T01:27:35.095Z,101478.19
2023-02-26T01:28:37.964Z,101493.94
2023-02-26T01:29:40.024Z,101516.69
2023-02-26T01:30:42.381Z,101420.16
2023-02-26T01:32:02.219Z,101521.06
2023-02-26T01:33:28.166Z,101518.41
2023-02-26T01:34:54.938Z,101519.88
2023-02-26T01:36:08.603Z,101407.09
2023-02-26T01:37:33.513Z,101520.69
2023-02-26T01:38:49.870Z,101516.25
2023-02-26T01:40:22.669Z,101411.19
2023-02-26T01:41:27.439Z,101481.81
2023-02-26T01:42:36.153Z,101512.19
2023-02-26T01:43:51.854Z,101526.41
2023-02-26T01:45:03.599Z,101496.50
2023-02-26T01:46:32.917Z,101522.22
2023-02-26T01:47:54.469Z,101515.94
2023-02-26T01:48:58.659Z,101516.91
2023-02-26T01:50:16.015Z,101493.31
2023-02-26T01:51:19.695Z,101459.41
2023-02-26T01:52:50.284Z,101530.03
2023-02-26T01:53:52.269Z,101438.47
2023-02-26T01:54:54.153Z,101419.13
2023-02-26T01:56:03.523Z,101538.59
2023-02-26T01:57:10.920Z,101532.28
2023-02-26T01:58:13.138Z,101407.47
2023-02-26T01:59:17.267Z,101451.88
2023-02-26T02:00:19.577Z,101452.75
2023-02-26T02:01:21.393Z,101500.03
2023-02-26T02:02:25.820Z,101498.94
2023-02-26T02:03:30.593Z,101438.28
2023-02-26T02:04:34.226Z,101503.41
2023-02-26T02:05:46.393Z,101478.56
2023-02-26T02:06:48.833Z,101498.09
2023-02-26T02:07:50.980Z,101512.44
2023-02-26T02:08:53.272Z,101492.63
2023-02-26T02:09:55.278Z,101471.25
2023-02-26T02:10:57.152Z,101503.41
2023-02-26T02:12:08.164Z,101539.13
2023-02-26T02:13:15.753Z,101536.38
2023-02-26T02:14:27.710Z,101503.41
2023-02-26T02:15:45.099Z,101510.22
2023-02-26T02:17:02.813Z,101477.25
2023-02-26T02:18:21.717Z,101536.16
2023-02-26T02:19:51.672Z,101494.47
2023-02-26T02:21:17.187Z,101506.97
2023-02-26T02:22:18.968Z,101541.13
2023-02-26T02:23:53.125Z,101544.97
2023-02-26T02:24:57.541Z,101544.00
2023-02-26T02:26:17.831Z,101548.59
2023-02-26T02:27:30.446Z,101495.09
2023-02-26T02:28:44.182Z,101544.25
2023-02-26T02:29:45.949Z,101552.38
2023-02-26T02:30:56.946Z,101552.59
2023-02-26T02:32:02.523Z,101537.25
2023-02-26T02:33:15.216Z,101479.47
2023-02-26T02:34:24.471Z,101485.13
2023-02-26T02:35:34.534Z,101487.69
2023-02-26T02:36:47.223Z,101523.25
2023-02-26T02:37:59.055Z,101528.03
2023-02-26T02:39:40.693Z,101560.97
2023-02-26T02:40:48.116Z,101519.41
2023-02-26T02:41:59.373Z,101516.63
2023-02-26T02:43:21.154Z,101560.22
2023-02-26T02:44:26.708Z,101476.31
2023-02-26T02:45:36.346Z,101558.03
2023-02-26T02:46:43.357Z,101479.19
2023-02-26T02:47:50.350Z,101513.22
2023-02-26T02:49:04.372Z,101560.91
2023-02-26T02:50:24.336Z,101526.88
2023-02-26T02:51:37.898Z,101548.28
2023-02-26T02:52:43.241Z,101552.69
2023-02-26T02:53:52.455Z,101522.81
2023-02-26T02:55:20.319Z,101564.97
2023-02-26T02:56:22.482Z,101561.44
2023-02-26T02:57:31.395Z,101563.59
2023-02-26T02:58:44.779Z,101538.59
2023-02-26T02:59:49.638Z,101404.78
2023-02-26T03:00:56.567Z,101573.50
2023-02-26T03:02:31.199Z,101565.19
2023-02-26T03:03:53.948Z,101564.09
2023-02-26T03:04:55.890Z,101563.34
2023-02-26T03:05:57.959Z,101521.22
2023-02-26T03:06:59.811Z,101499.63
2023-02-26T03:08:05.675Z,101562.34
2023-02-26T03:09:09.194Z,101554.34
2023-02-26T03:10:12.635Z,101529.19
2023-02-26T03:11:15.109Z,101575.53
2023-02-26T03:12:17.242Z,101496.88
2023-02-26T03:13:23.755Z,101517.50
2023-02-26T03:14:32.820Z,101529.66
2023-02-26T03:15:55.581Z,101578.19
2023-02-26T03:17:24.712Z,101572.44
2023-02-26T03:18:44.949Z,101574.97
2023-02-26T03:20:17.074Z,101574.75
2023-02-26T03:21:30.863Z,101579.25
2023-02-26T03:22:36.945Z,101522.00
2023-02-26T03:23:50.693Z,101504.72
2023-02-26T03:25:04.262Z,101529.66
2023-02-26T03:26:14.263Z,101420.75
2023-02-26T03:27:34.710Z,101585.00
2023-02-26T03:28:55.512Z,101545.72
2023-02-26T03:30:16.089Z,101563.63
2023-02-26T03:31:36.226Z,101555.56
2023-02-26T03:32:51.516Z,101477.97
2023-02-26T03:34:05.994Z,101593.13
2023-02-26T03:35:13.884Z,101574.84
2023-02-26T03:36:25.401Z,101597.72
2023-02-26T03:37:55.938Z,101599.19
2023-02-26T03:39:09.753Z,101555.84
2023-02-26T03:40:19.597Z,101559.69
2023-02-26T03:41:40.127Z,101510.22
2023-02-26T03:42:45.926Z,101485.00
2023-02-26T03:44:27.476Z,101599.41
2023-02-26T03:45:33.967Z,101548.19
2023-02-26T03:46:43.875Z,101443.75
2023-02-26T03:47:50.457Z,101545.34
2023-02-26T03:48:56.194Z,101567.81
2023-02-26T03:50:22.169Z,101580.56
2023-02-26T03:51:46.333Z,101542.22
2023-02-26T03:53:18.503Z,101536.38
2023-02-26T03:54:59.928Z,101603.47
2023-02-26T03:56:40.659Z,101582.41
2023-02-26T03:58:01.525Z,101546.72
2023-02-26T03:59:26.329Z,101569.63
2023-02-26T04:00:55.676Z,101602.22
2023-02-26T04:02:28.380Z,101617.94
2023-02-26T04:03:49.695Z,101616.97
2023-02-26T04:04:57.118Z,101565.69
2023-02-26T04:06:00.985Z,101592.94
2023-02-26T04:07:03.610Z,101463.75
2023-02-26T04:08:05.447Z,101599.16
2023-02-26T04:09:08.632Z,101582.41
2023-02-26T04:10:16.865Z,101565.38
2023-02-26T04:11:22.864Z,101606.38
2023-02-26T04:12:27.610Z,101588.25
2023-02-26T04:13:29.880Z,101541.34
2023-02-26T04:14:32.099Z,101569.09
2023-02-26T04:15:34.238Z,101438.66
2023-02-26T04:16:36.075Z,101478.84
2023-02-26T04:17:38.313Z,101497.69
2023-02-26T04:18:42.633Z,101607.13
2023-02-26T04:19:45.122Z,101574.56
2023-02-26T04:20:47.726Z,101596.91
2023-02-26T04:21:49.791Z,101545.47
2023-02-26T04:22:51.901Z,101634.31
2023-02-26T04:23:57.184Z,101606.38
2023-02-26T04:24:59.658Z,101601.19
2023-02-26T04:26:01.542Z,101581.78
2023-02-26T04:27:04.613Z,101623.00
2023-02-26T04:28:08.198Z,101625.31
2023-02-26T04:29:10.731Z,101534.00
2023-02-26T04:30:13.824Z,101481.84
2023-02-26T04:31:15.863Z,101579.88
2023-02-26T04:32:17.923Z,101620.44
2023-02-26T04:33:19.904Z,101586.25
2023-02-26T04:34:23.298Z,101581.88
2023-02-26T04:35:25.699Z,101591.72
2023-02-26T04:36:27.873Z,101656.50
2023-02-26T04:37:30.494Z,101614.28
2023-02-26T04:38:33.298Z,101576.47
2023-02-26T04:39:35.176Z,101522.59
2023-02-26T04:40:37.028Z,101635.81
2023-02-26T04:41:39.634Z,101651.97
2023-02-26T04:42:43.059Z,101592.44
2023-02-26T04:43:45.852Z,101590.97
2023-02-26T04:45:08.564Z,101631.97
2023-02-26T04:46:12.840Z,101626.72
2023-02-26T04:47:14.840Z,101522.19
2023-02-26T04:48:18.417Z,101665.31
2023-02-26T04:49:20.309Z,101615.25
2023-02-26T04:50:22.738Z,101665.72
2023-02-26T04:51:27.362Z,101628.13
2023-02-26T04:52:29.409Z,101636.13
2023-02-26T04:53:32.686Z,101642.19
2023-02-26T04:54:34.509Z,101625.97
2023-02-26T04:55:37.234Z,101596.38
2023-02-26T04:56:41.009Z,101646.47
2023-02-26T04:57:42.960Z,101590.44
2023-02-26T04:58:45.760Z,101641.22
2023-02-26T04:59:52.654Z,101646.56
2023-02-26T05:00:58.229Z,101674.41
2023-02-26T05:02:00.906Z,101639.59
2023-02-26T05:03:02.969Z,101651.56
2023-02-26T05:04:04.970Z,101545.81
2023-02-26T05:05:07.383Z,101658.81
2023-02-26T05:06:09.580Z,101664.53
2023-02-26T05:07:12.248Z,101654.31
2023-02-26T05:08:14.157Z,101647.06
2023-02-26T05:09:16.202Z,101599.25
2023-02-26T05:10:19.830Z,101684.16
2023-02-26T05:11:21.850Z,101647.19
2023-02-26T05:12:23.951Z,101678.94
2023-02-26T05:13:26.993Z,101667.78
2023-02-26T05:14:28.902Z,101527.38
2023-02-26T05:15:32.810Z,101696.78
2023-02-26T05:16:34.723Z,101658.47
2023-02-26T05:17:36.605Z,101648.38
2023-02-26T05:18:38.593Z,101695.91
2023-02-26T05:19:40.378Z,101692.47
2023-02-26T05:20:42.393Z,101632.16
2023-02-26T05:21:44.271Z,101533.88
2023-02-26T05:22:46.147Z,101701.22
2023-02-26T05:23:48.402Z,101545.56
2023-02-26T05:24:50.247Z,101683.09
2023-02-26T05:25:52.250Z,101689.69
2023-02-26T05:26:54.126Z,101683.00
2023-02-26T05:27:56.130Z,101677.13
2023-02-26T05:28:58.769Z,101541.44
2023-02-26T05:30:00.744Z,101647.41
2023-02-26T05:31:02.698Z,101563.97
2023-02-26T05:32:04.959Z,101611.41
2023-02-26T05:33:06.785Z,101581.13
2023-02-26T05:34:09.617Z,101568.69
2023-02-26T05:35:12.281Z,101526.31
2023-02-26T05:36:14.133Z,101535.56
2023-02-26T05:37:16.034Z,101688.41
2023-02-26T05:38:18.027Z,101554.72
2023-02-26T05:39:19.918Z,101646.88
2023-02-26T05:40:21.842Z,101673.31
2023-02-26T05:41:23.614Z,101643.34
2023-02-26T05:42:25.554Z,101703.97
2023-02-26T05:43:28.116Z,101685.66
2023-02-26T05:44:30.182Z,101697.59
2023-02-26T05:45:32.107Z,101697.16
2023-02-26T05:46:34.211Z,101711.88
2023-02-26T05:47:36.594Z,101693.75
2023-02-26T05:48:38.411Z,101666.56
2023-02-26T05:49:40.395Z,101648.44
2023-02-26T05:50:42.196Z,101691.84
2023-02-26T05:51:44.133Z,101690.56
2023-02-26T05:52:46.173Z,101648.44
2023-02-26T05:53:48.122Z,101679.38
2023-02-26T05:54:50.203Z,101580.06
2023-02-26T05:55:54.036Z,101689.28
2023-02-26T05:56:56.070Z,101709.72
2023-02-26T05:58:00.123Z,101698.41
2023-02-26T05:59:02.796Z,101711.44
2023-02-26T06:00:06.936Z,101732.44
2023-02-26T06:01:14.517Z,101661.75
2023-02-26T06:02:16.588Z,101674.13
2023-02-26T06:03:18.663Z,101707.50
2023-02-26T06:04:20.639Z,101677.97
2023-02-26T06:05:22.514Z,101603.16
2023-02-26T06:06:25.951Z,101674.78
2023-02-26T06:07:27.942Z,101691.19
2023-02-26T06:08:29.756Z,101745.88
2023-02-26T06:09:31.637Z,101671.78
2023-02-26T06:10:33.716Z,101742.34
2023-02-26T06:11:36.191Z,101575.88
2023-02-26T06:12:38.596Z,101743.19
2023-02-26T06:13:40.841Z,101749.50
2023-02-26T06:14:42.862Z,101741.06
2023-02-26T06:15:44.932Z,101753.13
2023-02-26T06:16:47.018Z,101698.09
2023-02-26T06:17:49.408Z,101570.78
2023-02-26T06:18:51.231Z,101723.97
2023-02-26T06:19:53.101Z,101764.72
2023-02-26T06:20:55.116Z,101744.56
2023-02-26T06:21:57.202Z,101718.03
2023-02-26T06:22:59.064Z,101585.44
2023-02-26T06:24:01.194Z,101704.94
2023-02-26T06:25:03.322Z,101729.22
2023-02-26T06:26:06.125Z,101758.97
2023-02-26T06:27:08.045Z,101685.63
2023-02-26T06:28:09.997Z,101742.00
2023-02-26T06:29:12.101Z,101760.66
2023-02-26T06:30:14.003Z,101598.44
2023-02-26T06:31:16.114Z,101704.06
2023-02-26T06:32:18.144Z,101754.38
2023-02-26T06:33:20.469Z,101719.53
2023-02-26T06:34:22.817Z,101676.78
2023-02-26T06:35:24.944Z,101719.41
2023-02-26T06:36:27.094Z,101663.88
2023-02-26T06:37:29.197Z,101682.19
2023-02-26T06:38:31.167Z,101755.34
2023-02-26T06:39:33.042Z,101748.94
2023-02-26T06:40:35.056Z,101744.03
2023-02-26T06:41:36.979Z,101717.63
2023-02-26T06:42:38.796Z,101707.03
2023-02-26T06:43:40.667Z,101744.44
2023-02-26T06:44:42.659Z,101763.53
2023-02-26T06:45:44.869Z,101590.75
2023-02-26T06:46:46.843Z,101659.50
2023-02-26T06:47:48.720Z,101732.84
2023-02-26T06:48:50.511Z,101785.19
2023-02-26T06:49:52.346Z,101683.06
2023-02-26T06:50:54.346Z,101708.72
2023-02-26T06:51:56.846Z,101751.81
2023-02-26T06:52:58.773Z,101749.16
2023-02-26T06:54:00.716Z,101726.97
2023-02-26T06:55:04.116Z,101600.44
2023-02-26T06:56:06.298Z,101748.81
2023-02-26T06:57:08.245Z,101742.97
2023-02-26T06:58:10.200Z,101711.59
2023-02-26T06:59:12.647Z,101699.25
2023-02-26T07:00:15.140Z,101724.06
2023-02-26T07:01:17.544Z,101784.63
2023-02-26T07:02:22.373Z,101791.38
2023-02-26T07:03:24.337Z,101776.66
2023-02-26T07:04:26.207Z,101802.44
2023-02-26T07:05:28.053Z,101758.31
2023-02-26T07:06:29.963Z,101729.28
2023-02-26T07:07:31.831Z,101792.22
2023-02-26T07:08:34.996Z,101767.66
2023-02-26T07:09:36.867Z,101767.03
2023-02-26T07:10:38.726Z,101727.69
2023-02-26T07:11:40.687Z,101625.91
2023-02-26T07:12:43.012Z,101792.78
2023-02-26T07:13:44.908Z,101759.28
2023-02-26T07:14:46.921Z,101722.50
2023-02-26T07:15:48.769Z,101753.31
2023-02-26T07:16:51.457Z,101733.81
2023-02-26T07:17:53.853Z,101723.03
2023-02-26T07:18:55.632Z,101691.16
2023-02-26T07:19:57.530Z,101719.31
2023-02-26T07:20:59.327Z,101756.75
2023-02-26T07:22:01.271Z,101629.56
2023-02-26T07:23:03.165Z,101724.44
2023-02-26T07:24:05.620Z,101766.16
2023-02-26T07:25:08.029Z,101780.13
2023-02-26T07:26:09.965Z,101732.09
2023-02-26T07:27:12.572Z,101813.81
2023-02-26T07:28:14.475Z,101730.53
2023-02-26T07:29:16.308Z,101763.06
2023-02-26T07:30:18.501Z,101757.72
2023-02-26T07:31:20.739Z,101714.63
2023-02-26T07:32:22.913Z,101746.84
2023-02-26T07:33:26.673Z,101790.47
2023-02-26T07:34:28.698Z,101774.03
2023-02-26T07:35:30.530Z,101771.88
2023-02-26T07:36:32.961Z,101662.00
2023-02-26T07:37:34.787Z,101767.13
2023-02-26T07:38:36.692Z,101712.09
2023-02-26T07:39:38.590Z,101755.06
2023-02-26T07:40:40.694Z,101749.59
2023-02-26T07:41:42.532Z,101792.16
2023-02-26T07:42:49.653Z,101771.22
2023-02-26T07:43:51.691Z,101772.38
2023-02-26T07:44:53.562Z,101770.69
2023-02-26T07:45:55.373Z,101791.13
2023-02-26T07:46:57.251Z,101647.94
2023-02-26T07:48:00.057Z,101764.81
2023-02-26T07:49:01.901Z,101816.75
2023-02-26T07:50:04.374Z,101768.09
2023-02-26T07:51:07.938Z,101802.97
2023-02-26T07:52:09.881Z,101790.88
2023-02-26T07:53:11.779Z,101798.56
2023-02-26T07:54:14.241Z,101807.78
2023-02-26T07:55:16.065Z,101723.13
2023-02-26T07:56:17.873Z,101819.06
2023-02-26T07:57:19.766Z,101776.56
2023-02-26T07:58:21.730Z,101695.13
2023-02-26T07:59:23.826Z,101778.94
2023-02-26T08:00:25.899Z,101781.06
2023-02-26T08:01:27.808Z,101799.31
2023-02-26T08:02:29.754Z,101788.22
2023-02-26T08:03:32.307Z,101804.97
2023-02-26T08:04:34.493Z,101705.56
2023-02-26T08:05:36.636Z,101799.19
2023-02-26T08:06:38.478Z,101814.97
2023-02-26T08:07:40.381Z,101678.75
2023-02-26T08:08:42.200Z,101797.09
2023-02-26T08:09:44.157Z,101824.47
2023-02-26T08:10:46.023Z,101800.09
2023-02-26T08:11:47.959Z,101797.94
2023-02-26T08:12:49.961Z,101737.03
2023-02-26T08:13:51.946Z,101778.81
2023-02-26T08:14:53.769Z,101802.94
2023-02-26T08:15:55.895Z,101803.56
2023-02-26T08:16:57.814Z,101796.50
2023-02-26T08:17:59.779Z,101806.97
2023-02-26T08:19:01.676Z,101819.97
2023-02-26T08:20:05.187Z,101853.97
2023-02-26T08:21:07.102Z,101810.28
2023-02-26T08:22:08.945Z,101806.88
2023-02-26T08:23:10.891Z,101811.84
2023-02-26T08:24:12.939Z,101795.78
2023-02-26T08:25:14.753Z,101800.88
2023-02-26T08:26:16.662Z,101668.78
2023-02-26T08:27:18.565Z,101709.94
2023-02-26T08:28:20.474Z,101745.56
2023-02-26T08:29:22.461Z,101809.41
2023-02-26T08:30:24.946Z,101828.19
2023-02-26T08:31:28.393Z,101812.06
2023-02-26T08:32:30.404Z,101816.03
2023-02-26T08:33:33.033Z,101680.59
2023-02-26T08:34:35.214Z,101832.44
2023-02-26T08:35:37.074Z,101865.91
2023-02-26T08:36:38.869Z,101800.66
2023-02-26T08:37:40.688Z,101827.09
2023-02-26T08:38:43.036Z,101867.63
2023-02-26T08:39:44.918Z,101743.09
2023-02-26T08:40:50.066Z,101843.53
2023-02-26T08:41:51.912Z,101807.59
2023-02-26T08:42:53.982Z,101836.94
2023-02-26T08:43:55.966Z,101826.06
2023-02-26T08:44:57.835Z,101816.03
2023-02-26T08:46:00.706Z,101854.94
2023-02-26T08:47:03.788Z,101845.56
2023-02-26T08:48:05.740Z,101810.28
2023-02-26T08:49:07.809Z,101831.38
2023-02-26T08:50:11.641Z,101851.53
2023-02-26T08:51:13.514Z,101736.28
2023-02-26T08:52:15.605Z,101777.88
2023-02-26T08:53:17.680Z,101807.94
2023-02-26T08:54:19.566Z,101829.03
2023-02-26T08:55:22.175Z,101834.03
2023-02-26T08:56:24.718Z,101858.63
2023-02-26T08:57:26.916Z,101798.22
2023-02-26T08:58:30.705Z,101766.88
2023-02-26T08:59:33.714Z,101765.06
2023-02-26T09:00:35.788Z,101819.44
2023-02-26T09:01:37.871Z,101827.72
2023-02-26T09:02:39.869Z,101860.34
2023-02-26T09:03:41.925Z,101828.19
2023-02-26T09:04:43.746Z,101802.81
2023-02-26T09:05:45.599Z,101865.69
2023-02-26T09:06:47.472Z,101803.97
2023-02-26T09:07:49.405Z,101807.16
2023-02-26T09:08:51.395Z,101834.03
2023-02-26T09:09:53.191Z,101806.31
2023-02-26T09:10:55.151Z,101847.44
2023-02-26T09:11:57.270Z,101815.16
2023-02-26T09:12:59.379Z,101798.13
2023-02-26T09:14:02.606Z,101776.56
2023-02-26T09:15:05.798Z,101801.53
2023-02-26T09:16:08.085Z,101813.34
2023-02-26T09:17:10.021Z,101697.63
2023-02-26T09:18:15.642Z,101819.53
2023-02-26T09:19:17.559Z,101809.19
2023-02-26T09:20:19.544Z,101824.53
2023-02-26T09:21:21.699Z,101823.06
2023-02-26T09:22:23.905Z,101812.72
2023-02-26T09:23:25.751Z,101841.69
2023-02-26T09:24:27.868Z,101822.84
2023-02-26T09:25:29.723Z,101787.03
2023-02-26T09:26:31.655Z,101849.88
2023-02-26T09:27:35.619Z,101808.13
2023-02-26T09:28:37.586Z,101817.59
2023-02-26T09:29:39.408Z,101687.00
2023-02-26T09:30:41.189Z,101824.88
2023-02-26T09:31:43.258Z,101629.25
2023-02-26T09:32:45.194Z,101682.59
2023-02-26T09:33:47.112Z,101840.50
2023-02-26T09:34:48.961Z,101825.78
2023-02-26T09:35:51.857Z,101849.44
2023-02-26T09:36:53.876Z,101775.38
2023-02-26T09:37:55.695Z,101835.59
2023-02-26T09:38:57.786Z,101704.50
2023-02-26T09:40:00.009Z,101807.06
2023-02-26T09:41:10.185Z,101856.59
2023-02-26T09:42:23.770Z,101849.19
2023-02-26T09:43:47.156Z,101830.03
2023-02-26T09:44:49.984Z,101775.38
2023-02-26T09:45:54.899Z,101828.34
2023-02-26T09:47:12.657Z,101849.09
2023-02-26T09:48:18.638Z,101780.50
2023-02-26T09:49:27.428Z,101853.47
2023-02-26T09:50:41.082Z,101810.75
2023-02-26T09:51:47.017Z,101803.06
2023-02-26T09:53:31.580Z,101847.44
2023-02-26T09:54:41.571Z,101826.94
2023-02-26T09:55:47.818Z,101864.75
2023-02-26T09:56:52.042Z,101821.28
2023-02-26T09:57:59.502Z,101856.25
2023-02-26T09:59:01.337Z,101823.84
2023-02-26T10:00:17.225Z,101860.84
2023-02-26T10:01:51.156Z,101803.75
2023-02-26T10:03:05.872Z,101828.75
2023-02-26T10:04:11.111Z,101860.38
2023-02-26T10:05:20.867Z,101818.00
2023-02-26T10:06:35.627Z,101841.38
2023-02-26T10:08:02.247Z,101861.13
2023-02-26T10:09:41.432Z,101863.59
2023-02-26T10:10:57.806Z,101836.75
2023-02-26T10:12:09.203Z,101782.19
2023-02-26T10:13:40.502Z,101872.59
2023-02-26T10:15:26.075Z,101866.78
2023-02-26T10:16:34.087Z,101876.97
2023-02-26T10:17:59.042Z,101873.56
2023-02-26T10:19:37.487Z,101877.56
2023-02-26T10:20:56.600Z,101876.97
2023-02-26T10:22:05.424Z,101878.91
2023-02-26T10:23:18.187Z,101829.75
2023-02-26T10:24:26.747Z,101886.13
2023-02-26T10:25:42.830Z,101808.66
2023-02-26T10:27:12.979Z,101892.84
2023-02-26T10:28:14.742Z,101885.94
2023-02-26T10:29:34.639Z,101821.13
2023-02-26T10:30:42.843Z,101887.84
2023-02-26T10:32:02.885Z,101891.28
2023-02-26T10:33:14.071Z,101889.59
2023-02-26T10:34:42.159Z,101872.97
2023-02-26T10:35:53.354Z,101864.72
2023-02-26T10:37:19.800Z,101905.38
2023-02-26T10:38:26.737Z,101897.38
2023-02-26T10:39:54.265Z,101893.72
2023-02-26T10:41:04.791Z,101864.09
2023-02-26T10:42:24.139Z,101861.66
2023-02-26T10:43:40.500Z,101879.78
2023-02-26T10:45:11.786Z,101897.25
2023-02-26T10:46:17.458Z,101892.63
2023-02-26T10:47:46.678Z,101894.47
2023-02-26T10:49:33.932Z,101896.78
2023-02-26T10:50:36.500Z,101870.25
2023-02-26T10:51:39.913Z,101838.41
2023-02-26T10:52:45.012Z,101897.38
2023-02-26T10:53:58.620Z,101747.19
2023-02-26T10:55:19.068Z,101889.34
2023-02-26T10:56:23.236Z,101824.31
2023-02-26T10:57:33.211Z,101723.31
2023-02-26T10:58:35.221Z,101863.75
2023-02-26T10:59:37.045Z,101759.94
2023-02-26T11:00:41.175Z,101727.78
2023-02-26T11:01:43.917Z,101831.47
2023-02-26T11:02:49.005Z,101825.75
2023-02-26T11:04:01.231Z,101883.13
2023-02-26T11:05:08.125Z,101874.63
2023-02-26T11:06:20.019Z,101829.19
2023-02-26T11:07:23.036Z,101847.84
2023-02-26T11:08:41.269Z,101858.31
2023-02-26T11:09:46.000Z,101839.19
2023-02-26T11:10:52.684Z,101889.88
2023-02-26T11:11:56.197Z,101888.91
2023-02-26T11:12:59.137Z,101895.22
2023-02-26T11:14:01.931Z,101809.50
2023-02-26T11:15:05.579Z,101879.16
2023-02-26T11:16:15.737Z,101873.81
2023-02-26T11:17:23.299Z,101880.75
2023-02-26T11:18:31.446Z,101858.19
2023-02-26T11:19:45.077Z,101874.34
2023-02-26T11:20:49.289Z,101740.19
2023-02-26T11:21:51.583Z,101874.34
2023-02-26T11:22:57.926Z,101869.81
2023-02-26T11:24:07.725Z,101848.72
2023-02-26T11:25:14.603Z,101877.75
2023-02-26T11:26:18.860Z,101872.25
2023-02-26T11:27:43.248Z,101844.66
2023-02-26T11:28:48.007Z,101877.28
2023-02-26T11:29:56.495Z,101876.41
2023-02-26T11:31:02.238Z,101836.34
2023-02-26T11:32:05.099Z,101844.16
2023-02-26T11:33:16.679Z,101827.81
2023-02-26T11:34:23.817Z,101834.63
2023-02-26T11:35:27.384Z,101849.13
2023-02-26T11:36:31.667Z,101842.78
2023-02-26T11:37:39.550Z,101885.28
2023-02-26T11:38:46.409Z,101874.50
2023-02-26T11:40:06.095Z,101877.03
2023-02-26T11:41:08.301Z,101786.47
2023-02-26T11:42:11.444Z,101740.69
2023-02-26T11:43:18.422Z,101838.81
2023-02-26T11:44:28.395Z,101839.66
2023-02-26T11:45:30.302Z,101831.72
2023-02-26T11:46:37.589Z,101835.91
2023-02-26T11:47:39.521Z,101867.47
2023-02-26T11:48:47.219Z,101858.75
2023-02-26T11:49:55.043Z,101876.94
2023-02-26T11:51:01.322Z,101873.31
2023-02-26T11:52:11.926Z,101870.50
2023-02-26T11:53:38.091Z,101852.25
2023-02-26T11:54:40.032Z,101833.97
2023-02-26T11:55:48.054Z,101852.94
2023-02-26T11:56:50.098Z,101854.75
2023-02-26T11:57:56.884Z,101833.00
2023-02-26T11:59:22.268Z,101823.72
2023-02-26T12:00:26.091Z,101874.44
2023-02-26T12:01:30.339Z,101877.34
2023-02-26T12:02:37.133Z,101872.09
2023-02-26T12:03:41.094Z,101871.16
2023-02-26T12:04:45.511Z,101827.66
2023-02-26T12:05:47.423Z,101833.97
2023-02-26T12:06:54.151Z,101812.03
2023-02-26T12:07:56.024Z,101746.06
2023-02-26T12:08:57.999Z,101832.88
2023-02-26T12:09:59.937Z,101848.91
2023-02-26T12:11:23.809Z,101867.53
2023-02-26T12:12:54.877Z,101858.84
2023-02-26T12:14:48.760Z,101864.53
2023-02-26T12:16:15.522Z,101831.25
2023-02-26T12:17:55.511Z,101838.31
2023-02-26T12:19:29.423Z,101866.84
2023-02-26T12:20:40.641Z,101863.56
2023-02-26T12:22:24.156Z,101842.19
2023-02-26T12:23:41.936Z,101864.53
2023-02-26T12:25:21.969Z,101874.50
2023-02-26T12:26:38.604Z,101866.25
2023-02-26T12:28:12.417Z,101871.59
2023-02-26T12:29:31.460Z,101848.66
2023-02-26T12:30:45.012Z,101843.31
2023-02-26T12:32:17.601Z,101862.19
2023-02-26T12:33:55.443Z,101827.22
2023-02-26T12:35:37.588Z,101868.53
2023-02-26T12:36:50.950Z,101869.50
2023-02-26T12:38:21.739Z,101867.56
2023-02-26T12:39:58.866Z,101864.06
2023-02-26T12:41:31.316Z,101865.63
2023-02-26T12:42:44.921Z,101865.75
2023-02-26T12:43:52.013Z,101823.59
2023-02-26T12:45:16.635Z,101865.50
2023-02-26T12:46:35.866Z,101864.31
2023-02-26T12:47:47.641Z,101853.53
2023-02-26T12:49:27.418Z,101866.25
2023-02-26T12:50:38.236Z,101864.06
2023-02-26T12:52:06.137Z,101865.75